sensor_id;sensor_type;location;lat;lon;timestamp;P1;durP1;ratioP1;P2;durP2;ratioP2
16193;SDS011;8204;53.582;10.080;2023-05-07T00:01:14;12.20;;;11.10;;
16193;SDS011;8204;53.582;10.080;2023-05-07T00:03:43;12.40;;;11.13;;
16193;SDS011;8204;53.582;10.080;2023-05-07T00:06:12;13.23;;;12.07;;
16193;SDS011;8204;53.582;10.080;2023-05-07T00:08:43;14.00;;;12.73;;
16193;SDS011;8204;53.582;10.080;2023-05-07T00:11:12;14.47;;;13.07;;
16193;SDS011;8204;53.582;10.080;2023-05-07T00:13:41;12.57;;;11.43;;
16193;SDS011;8204;53.582;10.080;2023-05-07T00:16:10;13.37;;;12.20;;
16193;SDS011;8204;53.582;10.080;2023-05-07T00:18:40;13.87;;;12.67;;
16193;SDS011;8204;53.582;10.080;2023-05-07T00:21:10;15.67;;;14.20;;
16193;SDS011;8204;53.582;10.080;2023-05-07T00:23:39;14.97;;;13.63;;
16193;SDS011;8204;53.582;10.080;2023-05-07T00:26:11;14.33;;;13.03;;
16193;SDS011;8204;53.582;10.080;2023-05-07T00:28:40;13.93;;;12.63;;
16193;SDS011;8204;53.582;10.080;2023-05-07T00:31:09;14.63;;;13.33;;
16193;SDS011;8204;53.582;10.080;2023-05-07T00:33:38;12.73;;;11.73;;
16193;SDS011;8204;53.582;10.080;2023-05-07T00:36:07;13.53;;;12.40;;
16193;SDS011;8204;53.582;10.080;2023-05-07T00:38:36;13.83;;;12.57;;
16193;SDS011;8204;53.582;10.080;2023-05-07T00:41:07;13.83;;;12.57;;
16193;SDS011;8204;53.582;10.080;2023-05-07T00:43:41;13.33;;;12.17;;
16193;SDS011;8204;53.582;10.080;2023-05-07T00:46:10;13.43;;;12.23;;
16193;SDS011;8204;53.582;10.080;2023-05-07T00:48:43;13.80;;;12.60;;
16193;SDS011;8204;53.582;10.080;2023-05-07T00:51:11;12.87;;;11.77;;
16193;SDS011;8204;53.582;10.080;2023-05-07T00:53:41;12.77;;;11.67;;
16193;SDS011;8204;53.582;10.080;2023-05-07T00:56:10;14.60;;;13.30;;
16193;SDS011;8204;53.582;10.080;2023-05-07T00:58:42;14.07;;;12.70;;
16193;SDS011;8204;53.582;10.080;2023-05-07T01:01:11;14.63;;;13.23;;
16193;SDS011;8204;53.582;10.080;2023-05-07T01:03:41;13.50;;;12.30;;
16193;SDS011;8204;53.582;10.080;2023-05-07T01:06:11;13.57;;;12.37;;
16193;SDS011;8204;53.582;10.080;2023-05-07T01:08:42;12.37;;;11.37;;
16193;SDS011;8204;53.582;10.080;2023-05-07T01:11:11;13.80;;;12.60;;
16193;SDS011;8204;53.582;10.080;2023-05-07T01:13:43;13.27;;;11.93;;
16193;SDS011;8204;53.582;10.080;2023-05-07T01:16:12;12.00;;;11.00;;
16193;SDS011;8204;53.582;10.080;2023-05-07T01:18:42;14.50;;;10.10;;
16193;SDS011;8204;53.582;10.080;2023-05-07T01:21:13;11.63;;;10.60;;
16193;SDS011;8204;53.582;10.080;2023-05-07T01:23:48;13.37;;;12.20;;
16193;SDS011;8204;53.582;10.080;2023-05-07T01:26:17;13.90;;;12.60;;
16193;SDS011;8204;53.582;10.080;2023-05-07T01:28:47;10.67;;;9.67;;
16193;SDS011;8204;53.582;10.080;2023-05-07T01:31:16;12.83;;;11.73;;
16193;SDS011;8204;53.582;10.080;2023-05-07T01:33:46;12.10;;;11.03;;
16193;SDS011;8204;53.582;10.080;2023-05-07T01:36:17;12.47;;;11.20;;
16193;SDS011;8204;53.582;10.080;2023-05-07T01:38:52;12.20;;;11.17;;
16193;SDS011;8204;53.582;10.080;2023-05-07T01:41:24;11.37;;;10.37;;
16193;SDS011;8204;53.582;10.080;2023-05-07T01:43:53;11.03;;;10.03;;
16193;SDS011;8204;53.582;10.080;2023-05-07T01:46:23;11.67;;;10.47;;
16193;SDS011;8204;53.582;10.080;2023-05-07T01:48:54;12.10;;;11.00;;
16193;SDS011;8204;53.582;10.080;2023-05-07T01:51:23;13.67;;;12.47;;
16193;SDS011;8204;53.582;10.080;2023-05-07T01:53:55;11.40;;;10.40;;
16193;SDS011;8204;53.582;10.080;2023-05-07T01:56:24;12.50;;;11.23;;
16193;SDS011;8204;53.582;10.080;2023-05-07T01:58:53;12.23;;;11.13;;
16193;SDS011;8204;53.582;10.080;2023-05-07T02:01:22;12.93;;;11.60;;
16193;SDS011;8204;53.582;10.080;2023-05-07T02:03:51;13.87;;;12.57;;
16193;SDS011;8204;53.582;10.080;2023-05-07T02:06:20;12.03;;;11.03;;
16193;SDS011;8204;53.582;10.080;2023-05-07T02:08:49;13.23;;;11.90;;
16193;SDS011;8204;53.582;10.080;2023-05-07T02:11:20;12.00;;;10.93;;
16193;SDS011;8204;53.582;10.080;2023-05-07T02:13:49;11.70;;;10.70;;
16193;SDS011;8204;53.582;10.080;2023-05-07T02:16:19;11.03;;;10.03;;
16193;SDS011;8204;53.582;10.080;2023-05-07T02:18:48;10.80;;;9.70;;
16193;SDS011;8204;53.582;10.080;2023-05-07T02:21:17;11.60;;;10.47;;
16193;SDS011;8204;53.582;10.080;2023-05-07T02:23:46;10.70;;;9.60;;
16193;SDS011;8204;53.582;10.080;2023-05-07T02:26:16;11.47;;;10.47;;
16193;SDS011;8204;53.582;10.080;2023-05-07T02:28:47;11.60;;;10.53;;
16193;SDS011;8204;53.582;10.080;2023-05-07T02:31:17;10.23;;;9.30;;
16193;SDS011;8204;53.582;10.080;2023-05-07T02:33:46;10.40;;;9.40;;
16193;SDS011;8204;53.582;10.080;2023-05-07T02:36:15;11.20;;;10.20;;
16193;SDS011;8204;53.582;10.080;2023-05-07T02:38:44;10.53;;;9.53;;
16193;SDS011;8204;53.582;10.080;2023-05-07T02:41:13;11.23;;;10.33;;
16193;SDS011;8204;53.582;10.080;2023-05-07T02:43:42;9.93;;;9.03;;
16193;SDS011;8204;53.582;10.080;2023-05-07T02:46:13;12.40;;;11.30;;
16193;SDS011;8204;53.582;10.080;2023-05-07T02:48:42;12.80;;;11.10;;
16193;SDS011;8204;53.582;10.080;2023-05-07T02:51:11;11.30;;;10.10;;
16193;SDS011;8204;53.582;10.080;2023-05-07T02:53:39;10.63;;;9.73;;
16193;SDS011;8204;53.582;10.080;2023-05-07T02:56:08;11.00;;;10.00;;
16193;SDS011;8204;53.582;10.080;2023-05-07T02:58:37;12.03;;;10.97;;
16193;SDS011;8204;53.582;10.080;2023-05-07T03:01:07;11.23;;;10.33;;
16193;SDS011;8204;53.582;10.080;2023-05-07T03:03:40;13.47;;;12.00;;
16193;SDS011;8204;53.582;10.080;2023-05-07T03:06:11;13.13;;;11.83;;
16193;SDS011;8204;53.582;10.080;2023-05-07T03:08:41;13.17;;;11.87;;
16193;SDS011;8204;53.582;10.080;2023-05-07T03:11:09;12.87;;;11.57;;
16193;SDS011;8204;53.582;10.080;2023-05-07T03:13:38;11.97;;;10.90;;
16193;SDS011;8204;53.582;10.080;2023-05-07T03:16:07;13.17;;;11.97;;
16193;SDS011;8204;53.582;10.080;2023-05-07T03:18:40;12.43;;;11.43;;
16193;SDS011;8204;53.582;10.080;2023-05-07T03:21:09;12.67;;;11.47;;
16193;SDS011;8204;53.582;10.080;2023-05-07T03:23:38;13.00;;;11.80;;
16193;SDS011;8204;53.582;10.080;2023-05-07T03:26:07;12.97;;;11.83;;
16193;SDS011;8204;53.582;10.080;2023-05-07T03:28:36;14.43;;;13.13;;
16193;SDS011;8204;53.582;10.080;2023-05-07T03:31:05;12.77;;;11.57;;
16193;SDS011;8204;53.582;10.080;2023-05-07T03:33:34;13.00;;;11.97;;
16193;SDS011;8204;53.582;10.080;2023-05-07T03:36:06;13.00;;;11.70;;
16193;SDS011;8204;53.582;10.080;2023-05-07T03:38:36;11.93;;;10.93;;
16193;SDS011;8204;53.582;10.080;2023-05-07T03:41:04;11.43;;;10.43;;
16193;SDS011;8204;53.582;10.080;2023-05-07T03:43:33;12.90;;;11.83;;
16193;SDS011;8204;53.582;10.080;2023-05-07T03:46:02;12.50;;;11.30;;
16193;SDS011;8204;53.582;10.080;2023-05-07T03:48:31;12.00;;;10.90;;
16193;SDS011;8204;53.582;10.080;2023-05-07T03:50:59;11.47;;;10.57;;
16193;SDS011;8204;53.582;10.080;2023-05-07T03:53:31;12.83;;;11.63;;
16193;SDS011;8204;53.582;10.080;2023-05-07T03:56:01;13.10;;;11.97;;
16193;SDS011;8204;53.582;10.080;2023-05-07T03:58:29;11.73;;;10.67;;
16193;SDS011;8204;53.582;10.080;2023-05-07T04:00:58;12.70;;;11.57;;
16193;SDS011;8204;53.582;10.080;2023-05-07T04:03:28;12.30;;;11.20;;
16193;SDS011;8204;53.582;10.080;2023-05-07T04:05:57;12.20;;;11.20;;
16193;SDS011;8204;53.582;10.080;2023-05-07T04:08:26;12.13;;;10.93;;
16193;SDS011;8204;53.582;10.080;2023-05-07T04:10:58;12.20;;;11.17;;
16193;SDS011;8204;53.582;10.080;2023-05-07T04:13:27;12.50;;;11.30;;
16193;SDS011;8204;53.582;10.080;2023-05-07T04:15:56;13.23;;;11.90;;
16193;SDS011;8204;53.582;10.080;2023-05-07T04:18:24;11.43;;;10.43;;
16193;SDS011;8204;53.582;10.080;2023-05-07T04:20:53;11.33;;;10.17;;
16193;SDS011;8204;53.582;10.080;2023-05-07T04:23:22;12.27;;;11.17;;
16193;SDS011;8204;53.582;10.080;2023-05-07T04:25:51;10.97;;;9.97;;
16193;SDS011;8204;53.582;10.080;2023-05-07T04:28:23;9.27;;;8.57;;
16193;SDS011;8204;53.582;10.080;2023-05-07T04:30:52;10.07;;;9.17;;
16193;SDS011;8204;53.582;10.080;2023-05-07T04:33:21;11.63;;;10.63;;
16193;SDS011;8204;53.582;10.080;2023-05-07T04:35:51;10.60;;;9.63;;
16193;SDS011;8204;53.582;10.080;2023-05-07T04:38:20;9.60;;;8.80;;
16193;SDS011;8204;53.582;10.080;2023-05-07T04:40:49;9.60;;;8.70;;
16193;SDS011;8204;53.582;10.080;2023-05-07T04:43:19;10.40;;;9.37;;
16193;SDS011;8204;53.582;10.080;2023-05-07T04:45:51;10.07;;;9.20;;
16193;SDS011;8204;53.582;10.080;2023-05-07T04:48:20;9.87;;;9.07;;
16193;SDS011;8204;53.582;10.080;2023-05-07T04:50:50;10.37;;;9.40;;
16193;SDS011;8204;53.582;10.080;2023-05-07T04:53:19;12.77;;;11.57;;
16193;SDS011;8204;53.582;10.080;2023-05-07T04:55:48;11.23;;;10.30;;
16193;SDS011;8204;53.582;10.080;2023-05-07T04:58:22;10.50;;;9.67;;
16193;SDS011;8204;53.582;10.080;2023-05-07T05:00:55;11.23;;;10.23;;
16193;SDS011;8204;53.582;10.080;2023-05-07T05:03:23;11.00;;;9.93;;
16193;SDS011;8204;53.582;10.080;2023-05-07T05:05:52;11.43;;;10.30;;
16193;SDS011;8204;53.582;10.080;2023-05-07T05:08:22;10.73;;;9.73;;
16193;SDS011;8204;53.582;10.080;2023-05-07T05:10:52;11.93;;;10.83;;
16193;SDS011;8204;53.582;10.080;2023-05-07T05:13:21;11.63;;;10.63;;
16193;SDS011;8204;53.582;10.080;2023-05-07T05:15:50;11.13;;;10.07;;
16193;SDS011;8204;53.582;10.080;2023-05-07T05:18:22;11.13;;;10.13;;
16193;SDS011;8204;53.582;10.080;2023-05-07T05:20:51;12.07;;;11.07;;
16193;SDS011;8204;53.582;10.080;2023-05-07T05:23:20;10.87;;;9.97;;
16193;SDS011;8204;53.582;10.080;2023-05-07T05:25:48;10.93;;;9.77;;
16193;SDS011;8204;53.582;10.080;2023-05-07T05:28:17;11.57;;;10.47;;
16193;SDS011;8204;53.582;10.080;2023-05-07T05:30:46;11.23;;;10.33;;
16193;SDS011;8204;53.582;10.080;2023-05-07T05:33:15;12.23;;;11.13;;
16193;SDS011;8204;53.582;10.080;2023-05-07T05:35:47;12.53;;;11.43;;
16193;SDS011;8204;53.582;10.080;2023-05-07T05:38:15;11.93;;;10.77;;
16193;SDS011;8204;53.582;10.080;2023-05-07T05:40:44;12.90;;;11.70;;
16193;SDS011;8204;53.582;10.080;2023-05-07T05:43:14;12.03;;;10.93;;
16193;SDS011;8204;53.582;10.080;2023-05-07T05:45:43;11.23;;;10.33;;
16193;SDS011;8204;53.582;10.080;2023-05-07T05:48:12;11.30;;;10.27;;
16193;SDS011;8204;53.582;10.080;2023-05-07T05:50:41;11.40;;;10.37;;
16193;SDS011;8204;53.582;10.080;2023-05-07T05:53:13;11.77;;;10.57;;
16193;SDS011;8204;53.582;10.080;2023-05-07T05:55:42;10.53;;;9.60;;
16193;SDS011;8204;53.582;10.080;2023-05-07T05:58:10;10.60;;;9.70;;
16193;SDS011;8204;53.582;10.080;2023-05-07T06:00:41;11.10;;;10.13;;
16193;SDS011;8204;53.582;10.080;2023-05-07T06:03:10;13.27;;;12.17;;
16193;SDS011;8204;53.582;10.080;2023-05-07T06:05:39;11.33;;;10.13;;
16193;SDS011;8204;53.582;10.080;2023-05-07T06:08:09;11.33;;;9.97;;
16193;SDS011;8204;53.582;10.080;2023-05-07T06:10:40;10.33;;;9.43;;
16193;SDS011;8204;53.582;10.080;2023-05-07T06:13:09;10.80;;;9.83;;
16193;SDS011;8204;53.582;10.080;2023-05-07T06:15:38;10.17;;;9.37;;
16193;SDS011;8204;53.582;10.080;2023-05-07T06:18:07;9.97;;;9.07;;
16193;SDS011;8204;53.582;10.080;2023-05-07T06:20:37;12.47;;;9.67;;
16193;SDS011;8204;53.582;10.080;2023-05-07T06:23:06;11.00;;;10.03;;
16193;SDS011;8204;53.582;10.080;2023-05-07T06:25:34;10.60;;;9.53;;
16193;SDS011;8204;53.582;10.080;2023-05-07T06:28:06;11.20;;;10.17;;
16193;SDS011;8204;53.582;10.080;2023-05-07T06:30:36;11.13;;;10.13;;
16193;SDS011;8204;53.582;10.080;2023-05-07T06:33:06;10.33;;;9.53;;
16193;SDS011;8204;53.582;10.080;2023-05-07T06:35:35;9.67;;;8.77;;
16193;SDS011;8204;53.582;10.080;2023-05-07T06:38:04;9.90;;;9.10;;
16193;SDS011;8204;53.582;10.080;2023-05-07T06:40:33;11.20;;;9.93;;
16193;SDS011;8204;53.582;10.080;2023-05-07T06:43:02;9.50;;;8.67;;
16193;SDS011;8204;53.582;10.080;2023-05-07T06:45:34;10.83;;;9.73;;
16193;SDS011;8204;53.582;10.080;2023-05-07T06:48:03;10.73;;;9.83;;
16193;SDS011;8204;53.582;10.080;2023-05-07T06:50:33;9.67;;;8.67;;
16193;SDS011;8204;53.582;10.080;2023-05-07T06:53:01;10.77;;;9.87;;
16193;SDS011;8204;53.582;10.080;2023-05-07T06:55:31;11.20;;;10.20;;
16193;SDS011;8204;53.582;10.080;2023-05-07T06:58:00;13.83;;;9.03;;
16193;SDS011;8204;53.582;10.080;2023-05-07T07:00:29;9.87;;;8.97;;
16193;SDS011;8204;53.582;10.080;2023-05-07T07:03:01;10.97;;;9.83;;
16193;SDS011;8204;53.582;10.080;2023-05-07T07:05:30;8.93;;;8.17;;
16193;SDS011;8204;53.582;10.080;2023-05-07T07:07:59;10.43;;;9.00;;
16193;SDS011;8204;53.582;10.080;2023-05-07T07:10:28;9.13;;;8.33;;
16193;SDS011;8204;53.582;10.080;2023-05-07T07:12:57;8.97;;;8.13;;
16193;SDS011;8204;53.582;10.080;2023-05-07T07:15:25;8.73;;;8.03;;
16193;SDS011;8204;53.582;10.080;2023-05-07T07:17:54;8.87;;;8.07;;
16193;SDS011;8204;53.582;10.080;2023-05-07T07:20:26;9.13;;;7.97;;
16193;SDS011;8204;53.582;10.080;2023-05-07T07:22:56;8.60;;;7.90;;
16193;SDS011;8204;53.582;10.080;2023-05-07T07:25:26;9.17;;;8.37;;
16193;SDS011;8204;53.582;10.080;2023-05-07T07:27:54;7.77;;;7.17;;
16193;SDS011;8204;53.582;10.080;2023-05-07T07:30:23;9.07;;;8.37;;
16193;SDS011;8204;53.582;10.080;2023-05-07T07:32:52;8.97;;;8.23;;
16193;SDS011;8204;53.582;10.080;2023-05-07T07:35:28;8.70;;;7.70;;
16193;SDS011;8204;53.582;10.080;2023-05-07T07:37:57;8.20;;;7.60;;
16193;SDS011;8204;53.582;10.080;2023-05-07T07:40:28;8.27;;;7.57;;
16193;SDS011;8204;53.582;10.080;2023-05-07T07:42:57;8.87;;;8.13;;
16193;SDS011;8204;53.582;10.080;2023-05-07T07:45:26;9.13;;;8.27;;
16193;SDS011;8204;53.582;10.080;2023-05-07T07:47:55;8.37;;;7.67;;
16193;SDS011;8204;53.582;10.080;2023-05-07T07:50:24;8.03;;;7.33;;
16193;SDS011;8204;53.582;10.080;2023-05-07T07:52:55;8.03;;;7.23;;
16193;SDS011;8204;53.582;10.080;2023-05-07T07:55:27;7.47;;;6.87;;
16193;SDS011;8204;53.582;10.080;2023-05-07T07:57:56;8.40;;;7.70;;
16193;SDS011;8204;53.582;10.080;2023-05-07T08:00:25;8.70;;;7.80;;
16193;SDS011;8204;53.582;10.080;2023-05-07T08:02:54;9.10;;;8.17;;
16193;SDS011;8204;53.582;10.080;2023-05-07T08:05:24;8.23;;;7.30;;
16193;SDS011;8204;53.582;10.080;2023-05-07T08:07:56;9.60;;;8.70;;
16193;SDS011;8204;53.582;10.080;2023-05-07T08:10:25;8.00;;;7.40;;
16193;SDS011;8204;53.582;10.080;2023-05-07T08:12:55;10.27;;;9.33;;
16193;SDS011;8204;53.582;10.080;2023-05-07T08:15:24;8.43;;;7.83;;
16193;SDS011;8204;53.582;10.080;2023-05-07T08:17:53;11.33;;;9.17;;
16193;SDS011;8204;53.582;10.080;2023-05-07T08:20:23;9.73;;;7.87;;
16193;SDS011;8204;53.582;10.080;2023-05-07T08:22:55;8.63;;;7.73;;
16193;SDS011;8204;53.582;10.080;2023-05-07T08:25:24;9.47;;;8.60;;
16193;SDS011;8204;53.582;10.080;2023-05-07T08:27:53;9.43;;;8.47;;
16193;SDS011;8204;53.582;10.080;2023-05-07T08:30:23;9.20;;;8.37;;
16193;SDS011;8204;53.582;10.080;2023-05-07T08:32:52;9.07;;;8.30;;
16193;SDS011;8204;53.582;10.080;2023-05-07T08:35:21;8.10;;;7.40;;
16193;SDS011;8204;53.582;10.080;2023-05-07T08:37:51;10.87;;;8.83;;
16193;SDS011;8204;53.582;10.080;2023-05-07T08:40:22;9.10;;;8.20;;
16193;SDS011;8204;53.582;10.080;2023-05-07T08:42:54;8.80;;;8.00;;
16193;SDS011;8204;53.582;10.080;2023-05-07T08:45:26;8.30;;;7.70;;
16193;SDS011;8204;53.582;10.080;2023-05-07T08:48:01;8.03;;;7.43;;
16193;SDS011;8204;53.582;10.080;2023-05-07T08:50:32;8.00;;;7.37;;
16193;SDS011;8204;53.582;10.080;2023-05-07T08:53:04;8.63;;;7.93;;
16193;SDS011;8204;53.582;10.080;2023-05-07T08:55:36;8.10;;;7.50;;
16193;SDS011;8204;53.582;10.080;2023-05-07T08:58:05;8.63;;;7.50;;
16193;SDS011;8204;53.582;10.080;2023-05-07T09:00:33;7.53;;;6.93;;
16193;SDS011;8204;53.582;10.080;2023-05-07T09:03:05;7.67;;;7.03;;
16193;SDS011;8204;53.582;10.080;2023-05-07T09:05:34;7.80;;;7.17;;
16193;SDS011;8204;53.582;10.080;2023-05-07T09:08:04;8.50;;;7.77;;
16193;SDS011;8204;53.582;10.080;2023-05-07T09:10:37;6.90;;;6.30;;
16193;SDS011;8204;53.582;10.080;2023-05-07T09:13:06;7.90;;;7.30;;
16193;SDS011;8204;53.582;10.080;2023-05-07T09:15:36;6.90;;;6.27;;
16193;SDS011;8204;53.582;10.080;2023-05-07T09:18:05;7.63;;;6.87;;
16193;SDS011;8204;53.582;10.080;2023-05-07T09:20:33;7.77;;;7.07;;
16193;SDS011;8204;53.582;10.080;2023-05-07T09:23:05;7.10;;;6.60;;
16193;SDS011;8204;53.582;10.080;2023-05-07T09:25:38;6.60;;;6.00;;
16193;SDS011;8204;53.582;10.080;2023-05-07T09:28:07;7.30;;;6.80;;
16193;SDS011;8204;53.582;10.080;2023-05-07T09:30:36;7.03;;;6.53;;
16193;SDS011;8204;53.582;10.080;2023-05-07T09:33:05;6.80;;;6.20;;
16193;SDS011;8204;53.582;10.080;2023-05-07T09:35:34;6.67;;;6.17;;
16193;SDS011;8204;53.582;10.080;2023-05-07T09:38:04;7.37;;;6.67;;
16193;SDS011;8204;53.582;10.080;2023-05-07T09:40:32;7.40;;;6.80;;
16193;SDS011;8204;53.582;10.080;2023-05-07T09:43:13;7.07;;;6.53;;
16193;SDS011;8204;53.582;10.080;2023-05-07T09:45:42;6.23;;;5.73;;
16193;SDS011;8204;53.582;10.080;2023-05-07T09:48:11;7.40;;;6.70;;
16193;SDS011;8204;53.582;10.080;2023-05-07T09:50:45;6.53;;;6.03;;
16193;SDS011;8204;53.582;10.080;2023-05-07T09:53:17;7.00;;;6.53;;
16193;SDS011;8204;53.582;10.080;2023-05-07T09:55:46;6.43;;;5.93;;
16193;SDS011;8204;53.582;10.080;2023-05-07T09:58:18;7.77;;;7.17;;
16193;SDS011;8204;53.582;10.080;2023-05-07T10:00:49;7.80;;;7.20;;
16193;SDS011;8204;53.582;10.080;2023-05-07T10:03:19;7.93;;;7.23;;
16193;SDS011;8204;53.582;10.080;2023-05-07T10:05:50;7.57;;;6.87;;
16193;SDS011;8204;53.582;10.080;2023-05-07T10:08:20;8.30;;;7.60;;
16193;SDS011;8204;53.582;10.080;2023-05-07T10:10:50;6.40;;;6.00;;
16193;SDS011;8204;53.582;10.080;2023-05-07T10:13:21;11.77;;;9.60;;
16193;SDS011;8204;53.582;10.080;2023-05-07T10:15:51;8.67;;;7.93;;
16193;SDS011;8204;53.582;10.080;2023-05-07T10:18:21;7.17;;;6.67;;
16193;SDS011;8204;53.582;10.080;2023-05-07T10:20:55;6.97;;;6.40;;
16193;SDS011;8204;53.582;10.080;2023-05-07T10:23:30;7.07;;;6.47;;
16193;SDS011;8204;53.582;10.080;2023-05-07T10:26:00;6.67;;;6.13;;
16193;SDS011;8204;53.582;10.080;2023-05-07T10:28:36;7.10;;;6.50;;
16193;SDS011;8204;53.582;10.080;2023-05-07T10:34:03;6.33;;;5.83;;
16193;SDS011;8204;53.582;10.080;2023-05-07T10:36:37;6.60;;;6.10;;
16193;SDS011;8204;53.582;10.080;2023-05-07T10:39:06;6.03;;;5.53;;
16193;SDS011;8204;53.582;10.080;2023-05-07T10:41:35;7.87;;;7.17;;
16193;SDS011;8204;53.582;10.080;2023-05-07T10:44:06;6.97;;;6.27;;
16193;SDS011;8204;53.582;10.080;2023-05-07T10:46:36;6.60;;;6.10;;
16193;SDS011;8204;53.582;10.080;2023-05-07T10:49:08;6.40;;;5.80;;
16193;SDS011;8204;53.582;10.080;2023-05-07T10:51:38;6.33;;;5.83;;
16193;SDS011;8204;53.582;10.080;2023-05-07T10:56:54;6.47;;;5.97;;
16193;SDS011;8204;53.582;10.080;2023-05-07T11:02:15;5.60;;;5.17;;
16193;SDS011;8204;53.582;10.080;2023-05-07T11:04:44;5.67;;;5.17;;
16193;SDS011;8204;53.582;10.080;2023-05-07T11:07:20;5.33;;;4.93;;
16193;SDS011;8204;53.582;10.080;2023-05-07T11:09:55;5.97;;;5.43;;
16193;SDS011;8204;53.582;10.080;2023-05-07T11:18:05;6.07;;;5.50;;
16193;SDS011;8204;53.582;10.080;2023-05-07T11:26:45;4.53;;;4.23;;
16193;SDS011;8204;53.582;10.080;2023-05-07T11:29:15;4.60;;;4.30;;
16193;SDS011;8204;53.582;10.080;2023-05-07T11:31:50;5.17;;;4.77;;
16193;SDS011;8204;53.582;10.080;2023-05-07T11:34:20;5.23;;;4.80;;
16193;SDS011;8204;53.582;10.080;2023-05-07T11:36:51;6.30;;;4.90;;
16193;SDS011;8204;53.582;10.080;2023-05-07T11:39:25;5.67;;;4.77;;
16193;SDS011;8204;53.582;10.080;2023-05-07T11:41:59;4.50;;;4.10;;
16193;SDS011;8204;53.582;10.080;2023-05-07T11:44:42;4.80;;;4.50;;
16193;SDS011;8204;53.582;10.080;2023-05-07T11:47:19;4.80;;;4.37;;
16193;SDS011;8204;53.582;10.080;2023-05-07T11:49:49;5.13;;;4.73;;
16193;SDS011;8204;53.582;10.080;2023-05-07T11:52:21;4.60;;;4.30;;
16193;SDS011;8204;53.582;10.080;2023-05-07T11:54:52;9.37;;;4.70;;
16193;SDS011;8204;53.582;10.080;2023-05-07T11:57:22;5.00;;;4.47;;
16193;SDS011;8204;53.582;10.080;2023-05-07T11:59:52;6.20;;;3.90;;
16193;SDS011;8204;53.582;10.080;2023-05-07T12:02:24;4.03;;;3.73;;
16193;SDS011;8204;53.582;10.080;2023-05-07T12:04:54;4.20;;;3.80;;
16193;SDS011;8204;53.582;10.080;2023-05-07T12:07:23;4.97;;;4.23;;
16193;SDS011;8204;53.582;10.080;2023-05-07T12:09:53;4.20;;;3.90;;
16193;SDS011;8204;53.582;10.080;2023-05-07T12:12:22;4.27;;;3.97;;
16193;SDS011;8204;53.582;10.080;2023-05-07T12:14:52;7.63;;;4.30;;
16193;SDS011;8204;53.582;10.080;2023-05-07T12:17:24;3.27;;;3.03;;
16193;SDS011;8204;53.582;10.080;2023-05-07T12:19:53;4.00;;;3.70;;
16193;SDS011;8204;53.582;10.080;2023-05-07T12:22:22;3.63;;;3.33;;
16193;SDS011;8204;53.582;10.080;2023-05-07T12:24:56;3.67;;;3.37;;
16193;SDS011;8204;53.582;10.080;2023-05-07T12:27:26;5.07;;;3.83;;
16193;SDS011;8204;53.582;10.080;2023-05-07T12:29:56;3.70;;;3.40;;
16193;SDS011;8204;53.582;10.080;2023-05-07T12:32:29;3.90;;;3.50;;
16193;SDS011;8204;53.582;10.080;2023-05-07T12:35:02;3.87;;;3.37;;
16193;SDS011;8204;53.582;10.080;2023-05-07T12:37:31;3.27;;;3.07;;
16193;SDS011;8204;53.582;10.080;2023-05-07T12:40:03;3.20;;;3.00;;
16193;SDS011;8204;53.582;10.080;2023-05-07T12:42:35;3.27;;;3.03;;
16193;SDS011;8204;53.582;10.080;2023-05-07T12:45:08;3.33;;;3.03;;
16193;SDS011;8204;53.582;10.080;2023-05-07T12:47:43;5.23;;;3.40;;
16193;SDS011;8204;53.582;10.080;2023-05-07T12:50:12;3.27;;;2.97;;
16193;SDS011;8204;53.582;10.080;2023-05-07T12:52:41;3.20;;;3.00;;
16193;SDS011;8204;53.582;10.080;2023-05-07T12:55:12;2.97;;;2.77;;
16193;SDS011;8204;53.582;10.080;2023-05-07T12:57:43;3.20;;;2.90;;
16193;SDS011;8204;53.582;10.080;2023-05-07T13:00:16;2.60;;;2.43;;
16193;SDS011;8204;53.582;10.080;2023-05-07T13:02:47;3.23;;;2.93;;
16193;SDS011;8204;53.582;10.080;2023-05-07T13:05:17;4.10;;;3.50;;
16193;SDS011;8204;53.582;10.080;2023-05-07T13:07:52;3.10;;;2.83;;
16193;SDS011;8204;53.582;10.080;2023-05-07T13:10:21;2.60;;;2.50;;
16193;SDS011;8204;53.582;10.080;2023-05-07T13:12:50;3.03;;;2.83;;
16193;SDS011;8204;53.582;10.080;2023-05-07T13:15:21;2.70;;;2.60;;
16193;SDS011;8204;53.582;10.080;2023-05-07T13:17:54;2.13;;;2.03;;
16193;SDS011;8204;53.582;10.080;2023-05-07T13:20:23;3.53;;;3.23;;
16193;SDS011;8204;53.582;10.080;2023-05-07T13:22:53;3.33;;;3.00;;
16193;SDS011;8204;53.582;10.080;2023-05-07T13:25:23;3.73;;;3.43;;
16193;SDS011;8204;53.582;10.080;2023-05-07T13:27:53;2.97;;;2.77;;
16193;SDS011;8204;53.582;10.080;2023-05-07T13:30:21;2.90;;;2.70;;
16193;SDS011;8204;53.582;10.080;2023-05-07T13:32:54;3.50;;;3.20;;
16193;SDS011;8204;53.582;10.080;2023-05-07T13:35:24;2.70;;;2.50;;
16193;SDS011;8204;53.582;10.080;2023-05-07T13:37:53;3.47;;;3.00;;
16193;SDS011;8204;53.582;10.080;2023-05-07T13:40:23;3.97;;;3.70;;
16193;SDS011;8204;53.582;10.080;2023-05-07T13:42:53;4.53;;;4.13;;
16193;SDS011;8204;53.582;10.080;2023-05-07T13:45:23;2.83;;;2.63;;
16193;SDS011;8204;53.582;10.080;2023-05-07T13:47:57;3.13;;;2.70;;
16193;SDS011;8204;53.582;10.080;2023-05-07T13:50:26;3.03;;;2.83;;
16193;SDS011;8204;53.582;10.080;2023-05-07T13:52:56;2.60;;;2.50;;
16193;SDS011;8204;53.582;10.080;2023-05-07T13:55:27;2.97;;;2.77;;
16193;SDS011;8204;53.582;10.080;2023-05-07T13:57:58;2.20;;;2.10;;
16193;SDS011;8204;53.582;10.080;2023-05-07T14:00:28;3.10;;;2.80;;
16193;SDS011;8204;53.582;10.080;2023-05-07T14:03:00;4.00;;;3.70;;
16193;SDS011;8204;53.582;10.080;2023-05-07T14:05:29;3.30;;;3.03;;
16193;SDS011;8204;53.582;10.080;2023-05-07T14:07:59;2.53;;;2.43;;
16193;SDS011;8204;53.582;10.080;2023-05-07T14:10:29;3.00;;;2.67;;
16193;SDS011;8204;53.582;10.080;2023-05-07T14:13:00;3.00;;;2.80;;
16193;SDS011;8204;53.582;10.080;2023-05-07T14:15:30;2.90;;;2.70;;
16193;SDS011;8204;53.582;10.080;2023-05-07T14:18:01;2.83;;;2.63;;
16193;SDS011;8204;53.582;10.080;2023-05-07T14:20:31;4.27;;;2.60;;
16193;SDS011;8204;53.582;10.080;2023-05-07T14:23:02;2.90;;;2.47;;
16193;SDS011;8204;53.582;10.080;2023-05-07T14:25:31;3.03;;;2.83;;
16193;SDS011;8204;53.582;10.080;2023-05-07T14:28:00;2.90;;;2.63;;
16193;SDS011;8204;53.582;10.080;2023-05-07T14:30:29;3.03;;;2.33;;
16193;SDS011;8204;53.582;10.080;2023-05-07T14:32:58;3.00;;;2.80;;
16193;SDS011;8204;53.582;10.080;2023-05-07T14:35:29;3.00;;;2.47;;
16193;SDS011;8204;53.582;10.080;2023-05-07T14:37:58;2.57;;;2.37;;
16193;SDS011;8204;53.582;10.080;2023-05-07T14:40:27;2.67;;;2.50;;
16193;SDS011;8204;53.582;10.080;2023-05-07T14:42:56;2.93;;;2.73;;
16193;SDS011;8204;53.582;10.080;2023-05-07T14:45:25;3.07;;;2.70;;
16193;SDS011;8204;53.582;10.080;2023-05-07T14:47:54;2.77;;;2.67;;
16193;SDS011;8204;53.582;10.080;2023-05-07T14:50:23;4.10;;;2.83;;
16193;SDS011;8204;53.582;10.080;2023-05-07T14:52:54;2.63;;;2.53;;
16193;SDS011;8204;53.582;10.080;2023-05-07T14:55:23;3.50;;;2.33;;
16193;SDS011;8204;53.582;10.080;2023-05-07T14:57:52;3.17;;;2.53;;
16193;SDS011;8204;53.582;10.080;2023-05-07T15:00:21;3.57;;;3.27;;
16193;SDS011;8204;53.582;10.080;2023-05-07T15:02:51;3.20;;;3.00;;
16193;SDS011;8204;53.582;10.080;2023-05-07T15:05:20;4.47;;;3.13;;
16193;SDS011;8204;53.582;10.080;2023-05-07T15:07:49;2.97;;;2.77;;
16193;SDS011;8204;53.582;10.080;2023-05-07T15:10:22;3.37;;;3.07;;
16193;SDS011;8204;53.582;10.080;2023-05-07T15:12:50;3.07;;;2.87;;